sensor_id;sensor_type;location;lat;lon;timestamp;temperature;humidity
26641;DHT22;14269;47.358;0.724;2022-08-19T00:00:48;23.0;58.0
26641;DHT22;14269;47.358;0.724;2022-08-19T00:03:28;23.0;58.0
26641;DHT22;14269;47.358;0.724;2022-08-19T00:06:00;23.0;58.0
26641;DHT22;14269;47.358;0.724;2022-08-19T00:08:32;23.0;58.0
26641;DHT22;14269;47.358;0.724;2022-08-19T00:11:03;23.0;58.0
26641;DHT22;14269;47.358;0.724;2022-08-19T00:13:35;23.0;58.0
26641;DHT22;14269;47.358;0.724;2022-08-19T00:16:07;23.0;58.0
26641;DHT22;14269;47.358;0.724;2022-08-19T00:18:38;23.0;58.0
26641;DHT22;14269;47.358;0.724;2022-08-19T00:21:10;23.0;58.0
26641;DHT22;14269;47.358;0.724;2022-08-19T00:23:42;23.0;58.0
26641;DHT22;14269;47.358;0.724;2022-08-19T00:26:23;23.0;58.0
26641;DHT22;14269;47.358;0.724;2022-08-19T00:28:55;23.0;58.0
26641;DHT22;14269;47.358;0.724;2022-08-19T00:31:27;23.0;58.0
26641;DHT22;14269;47.358;0.724;2022-08-19T00:33:59;23.0;58.0
26641;DHT22;14269;47.358;0.724;2022-08-19T00:36:31;23.0;58.0
26641;DHT22;14269;47.358;0.724;2022-08-19T00:39:13;23.0;58.0
26641;DHT22;14269;47.358;0.724;2022-08-19T00:41:53;23.0;58.0
26641;DHT22;14269;47.358;0.724;2022-08-19T00:44:27;23.0;58.0
26641;DHT22;14269;47.358;0.724;2022-08-19T00:47:08;23.0;58.0
26641;DHT22;14269;47.358;0.724;2022-08-19T00:49:41;23.0;58.0
26641;DHT22;14269;47.358;0.724;2022-08-19T00:52:25;23.0;58.0
26641;DHT22;14269;47.358;0.724;2022-08-19T00:55:04;23.0;58.0
26641;DHT22;14269;47.358;0.724;2022-08-19T00:57:47;23.0;58.0
26641;DHT22;14269;47.358;0.724;2022-08-19T01:00:27;23.0;58.0
26641;DHT22;14269;47.358;0.724;2022-08-19T01:03:09;23.0;58.0
26641;DHT22;14269;47.358;0.724;2022-08-19T01:05:50;23.0;58.0
26641;DHT22;14269;47.358;0.724;2022-08-19T01:08:33;23.0;58.0
26641;DHT22;14269;47.358;0.724;2022-08-19T01:11:13;23.0;58.0
26641;DHT22;14269;47.358;0.724;2022-08-19T01:13:45;23.0;59.0
26641;DHT22;14269;47.358;0.724;2022-08-19T01:16:28;23.0;58.0
26641;DHT22;14269;47.358;0.724;2022-08-19T01:19:15;23.0;58.0
26641;DHT22;14269;47.358;0.724;2022-08-19T01:21:53;23.0;58.0
26641;DHT22;14269;47.358;0.724;2022-08-19T01:24:31;23.0;58.0
26641;DHT22;14269;47.358;0.724;2022-08-19T01:27:03;23.0;58.0
26641;DHT22;14269;47.358;0.724;2022-08-19T01:29:39;23.0;58.0
26641;DHT22;14269;47.358;0.724;2022-08-19T01:32:17;23.0;58.0
26641;DHT22;14269;47.358;0.724;2022-08-19T01:34:58;23.0;59.0
26641;DHT22;14269;47.358;0.724;2022-08-19T01:37:45;22.0;59.0
26641;DHT22;14269;47.358;0.724;2022-08-19T01:40:24;22.0;60.0
26641;DHT22;14269;47.358;0.724;2022-08-19T01:43:05;23.0;59.0
26641;DHT22;14269;47.358;0.724;2022-08-19T01:45:45;23.0;59.0
26641;DHT22;14269;47.358;0.724;2022-08-19T01:48:16;23.0;59.0
26641;DHT22;14269;47.358;0.724;2022-08-19T01:50:48;23.0;59.0
26641;DHT22;14269;47.358;0.724;2022-08-19T01:53:20;23.0;59.0
26641;DHT22;14269;47.358;0.724;2022-08-19T01:55:54;23.0;59.0
26641;DHT22;14269;47.358;0.724;2022-08-19T01:58:40;22.0;60.0
26641;DHT22;14269;47.358;0.724;2022-08-19T02:01:15;23.0;59.0
26641;DHT22;14269;47.358;0.724;2022-08-19T02:03:46;22.0;59.0
26641;DHT22;14269;47.358;0.724;2022-08-19T02:06:18;22.0;59.0
26641;DHT22;14269;47.358;0.724;2022-08-19T02:08:50;22.0;61.0
26641;DHT22;14269;47.358;0.724;2022-08-19T02:11:27;22.0;61.0
26641;DHT22;14269;47.358;0.724;2022-08-19T02:14:06;22.0;60.0
26641;DHT22;14269;47.358;0.724;2022-08-19T02:16:45;22.0;60.0
26641;DHT22;14269;47.358;0.724;2022-08-19T02:19:16;22.0;60.0
26641;DHT22;14269;47.358;0.724;2022-08-19T02:21:48;22.0;59.0
26641;DHT22;14269;47.358;0.724;2022-08-19T02:24:20;23.0;59.0
26641;DHT22;14269;47.358;0.724;2022-08-19T02:26:52;23.0;59.0
26641;DHT22;14269;47.358;0.724;2022-08-19T02:29:23;23.0;59.0
26641;DHT22;14269;47.358;0.724;2022-08-19T02:31:55;23.0;58.0
26641;DHT22;14269;47.358;0.724;2022-08-19T02:34:26;23.0;58.0
26641;DHT22;14269;47.358;0.724;2022-08-19T02:36:58;23.0;58.0
26641;DHT22;14269;47.358;0.724;2022-08-19T02:39:30;23.0;58.0
26641;DHT22;14269;47.358;0.724;2022-08-19T02:42:02;23.0;58.0
26641;DHT22;14269;47.358;0.724;2022-08-19T02:44:33;23.0;58.0
26641;DHT22;14269;47.358;0.724;2022-08-19T02:47:06;23.0;58.0
26641;DHT22;14269;47.358;0.724;2022-08-19T02:49:38;23.0;58.0
26641;DHT22;14269;47.358;0.724;2022-08-19T02:52:18;23.0;58.0
26641;DHT22;14269;47.358;0.724;2022-08-19T02:54:51;23.0;58.0
26641;DHT22;14269;47.358;0.724;2022-08-19T02:57:34;23.0;57.0
26641;DHT22;14269;47.358;0.724;2022-08-19T03:00:14;23.0;58.0
26641;DHT22;14269;47.358;0.724;2022-08-19T03:02:46;23.0;59.0
26641;DHT22;14269;47.358;0.724;2022-08-19T03:05:27;23.0;58.0
26641;DHT22;14269;47.358;0.724;2022-08-19T03:07:58;22.0;59.0
26641;DHT22;14269;47.358;0.724;2022-08-19T03:10:31;22.0;59.0
26641;DHT22;14269;47.358;0.724;2022-08-19T03:13:14;22.0;59.0
26641;DHT22;14269;47.358;0.724;2022-08-19T03:15:53;23.0;59.0
26641;DHT22;14269;47.358;0.724;2022-08-19T03:18:26;22.0;60.0
26641;DHT22;14269;47.358;0.724;2022-08-19T03:21:07;22.0;60.0
26641;DHT22;14269;47.358;0.724;2022-08-19T03:23:43;23.0;60.0
26641;DHT22;14269;47.358;0.724;2022-08-19T03:26:20;23.0;59.0
26641;DHT22;14269;47.358;0.724;2022-08-19T03:28:52;23.0;59.0
26641;DHT22;14269;47.358;0.724;2022-08-19T03:31:26;23.0;59.0
26641;DHT22;14269;47.358;0.724;2022-08-19T03:34:05;23.0;59.0
26641;DHT22;14269;47.358;0.724;2022-08-19T03:36:38;23.0;59.0
26641;DHT22;14269;47.358;0.724;2022-08-19T03:39:19;23.0;59.0
26641;DHT22;14269;47.358;0.724;2022-08-19T03:41:52;23.0;59.0
26641;DHT22;14269;47.358;0.724;2022-08-19T03:44:33;23.0;59.0
26641;DHT22;14269;47.358;0.724;2022-08-19T03:47:05;23.0;59.0
26641;DHT22;14269;47.358;0.724;2022-08-19T03:49:46;23.0;59.0
26641;DHT22;14269;47.358;0.724;2022-08-19T03:52:17;23.0;59.0
26641;DHT22;14269;47.358;0.724;2022-08-19T03:54:49;23.0;59.0
26641;DHT22;14269;47.358;0.724;2022-08-19T03:57:21;23.0;59.0
26641;DHT22;14269;47.358;0.724;2022-08-19T03:59:54;23.0;59.0
26641;DHT22;14269;47.358;0.724;2022-08-19T04:02:34;23.0;59.0
26641;DHT22;14269;47.358;0.724;2022-08-19T04:05:08;23.0;59.0
26641;DHT22;14269;47.358;0.724;2022-08-19T04:07:47;23.0;59.0
26641;DHT22;14269;47.358;0.724;2022-08-19T04:10:19;23.0;59.0
26641;DHT22;14269;47.358;0.724;2022-08-19T04:12:50;22.0;60.0
26641;DHT22;14269;47.358;0.724;2022-08-19T04:15:22;23.0;59.0
26641;DHT22;14269;47.358;0.724;2022-08-19T04:17:54;23.0;59.0
26641;DHT22;14269;47.358;0.724;2022-08-19T04:20:26;22.0;60.0
26641;DHT22;14269;47.358;0.724;2022-08-19T04:22:58;22.0;60.0
26641;DHT22;14269;47.358;0.724;2022-08-19T04:25:40;22.0;60.0
26641;DHT22;14269;47.358;0.724;2022-08-19T04:28:21;22.0;60.0
26641;DHT22;14269;47.358;0.724;2022-08-19T04:30:54;22.0;60.0
26641;DHT22;14269;47.358;0.724;2022-08-19T04:33:34;22.0;61.0
26641;DHT22;14269;47.358;0.724;2022-08-19T04:36:06;22.0;61.0
26641;DHT22;14269;47.358;0.724;2022-08-19T04:38:48;22.0;61.0
26641;DHT22;14269;47.358;0.724;2022-08-19T04:43:41;22.0;61.0
26641;DHT22;14269;47.358;0.724;2022-08-19T04:46:13;22.0;61.0
26641;DHT22;14269;47.358;0.724;2022-08-19T04:48:44;22.0;61.0
26641;DHT22;14269;47.358;0.724;2022-08-19T04:51:17;22.0;61.0
26641;DHT22;14269;47.358;0.724;2022-08-19T04:53:49;22.0;61.0
26641;DHT22;14269;47.358;0.724;2022-08-19T04:56:29;22.0;61.0
26641;DHT22;14269;47.358;0.724;2022-08-19T04:59:03;22.0;61.0
26641;DHT22;14269;47.358;0.724;2022-08-19T05:01:43;22.0;61.0
26641;DHT22;14269;47.358;0.724;2022-08-19T05:04:14;22.0;61.0
26641;DHT22;14269;47.358;0.724;2022-08-19T05:06:47;22.0;62.0
26641;DHT22;14269;47.358;0.724;2022-08-19T05:09:28;22.0;61.0
26641;DHT22;14269;47.358;0.724;2022-08-19T05:11:59;22.0;63.0
26641;DHT22;14269;47.358;0.724;2022-08-19T05:14:41;22.0;63.0
26641;DHT22;14269;47.358;0.724;2022-08-19T05:17:12;22.0;63.0
26641;DHT22;14269;47.358;0.724;2022-08-19T05:22:47;22.0;62.0
26641;DHT22;14269;47.358;0.724;2022-08-19T05:25:28;22.0;62.0
26641;DHT22;14269;47.358;0.724;2022-08-19T05:27:59;22.0;62.0
26641;DHT22;14269;47.358;0.724;2022-08-19T05:30:34;22.0;62.0
26641;DHT22;14269;47.358;0.724;2022-08-19T05:33:13;22.0;62.0
26641;DHT22;14269;47.358;0.724;2022-08-19T05:35:46;22.0;63.0
26641;DHT22;14269;47.358;0.724;2022-08-19T05:38:30;22.0;63.0
26641;DHT22;14269;47.358;0.724;2022-08-19T05:41:09;22.0;62.0
26641;DHT22;14269;47.358;0.724;2022-08-19T05:43:50;22.0;61.0
26641;DHT22;14269;47.358;0.724;2022-08-19T05:46:22;22.0;61.0
26641;DHT22;14269;47.358;0.724;2022-08-19T05:49:04;22.0;63.0
26641;DHT22;14269;47.358;0.724;2022-08-19T05:51:45;22.0;63.0
26641;DHT22;14269;47.358;0.724;2022-08-19T05:54:18;22.0;64.0
26641;DHT22;14269;47.358;0.724;2022-08-19T05:57:00;22.0;64.0
26641;DHT22;14269;47.358;0.724;2022-08-19T05:59:40;22.0;64.0
26641;DHT22;14269;47.358;0.724;2022-08-19T06:02:22;21.0;66.0
26641;DHT22;14269;47.358;0.724;2022-08-19T06:04:53;21.0;66.0
26641;DHT22;14269;47.358;0.724;2022-08-19T06:07:25;21.0;65.0
26641;DHT22;14269;47.358;0.724;2022-08-19T06:09:57;21.0;67.0
26641;DHT22;14269;47.358;0.724;2022-08-19T06:12:31;21.0;67.0
26641;DHT22;14269;47.358;0.724;2022-08-19T06:15:12;22.0;65.0
26641;DHT22;14269;47.358;0.724;2022-08-19T06:17:52;22.0;64.0
26641;DHT22;14269;47.358;0.724;2022-08-19T06:20:23;22.0;65.0
26641;DHT22;14269;47.358;0.724;2022-08-19T06:22:55;22.0;66.0
26641;DHT22;14269;47.358;0.724;2022-08-19T06:25:27;22.0;64.0
26641;DHT22;14269;47.358;0.724;2022-08-19T06:27:58;22.0;64.0
26641;DHT22;14269;47.358;0.724;2022-08-19T06:30:30;21.0;65.0
26641;DHT22;14269;47.358;0.724;2022-08-19T06:33:02;21.0;66.0
26641;DHT22;14269;47.358;0.724;2022-08-19T06:35:38;21.0;65.0
26641;DHT22;14269;47.358;0.724;2022-08-19T06:38:15;21.0;67.0
26641;DHT22;14269;47.358;0.724;2022-08-19T06:40:47;21.0;66.0
26641;DHT22;14269;47.358;0.724;2022-08-19T06:43:18;21.0;68.0
26641;DHT22;14269;47.358;0.724;2022-08-19T06:45:51;22.0;65.0
26641;DHT22;14269;47.358;0.724;2022-08-19T06:48:32;22.0;65.0
26641;DHT22;14269;47.358;0.724;2022-08-19T06:51:05;22.0;65.0
26641;DHT22;14269;47.358;0.724;2022-08-19T06:53:47;22.0;63.0
26641;DHT22;14269;47.358;0.724;2022-08-19T06:56:31;23.0;61.0
26641;DHT22;14269;47.358;0.724;2022-08-19T06:59:12;23.0;61.0
26641;DHT22;14269;47.358;0.724;2022-08-19T07:01:52;23.0;61.0
26641;DHT22;14269;47.358;0.724;2022-08-19T07:04:36;23.0;61.0
26641;DHT22;14269;47.358;0.724;2022-08-19T07:07:15;23.0;62.0
26641;DHT22;14269;47.358;0.724;2022-08-19T07:09:46;23.0;63.0
26641;DHT22;14269;47.358;0.724;2022-08-19T07:12:17;23.0;62.0
26641;DHT22;14269;47.358;0.724;2022-08-19T07:14:49;23.0;62.0
26641;DHT22;14269;47.358;0.724;2022-08-19T07:17:20;23.0;62.0
26641;DHT22;14269;47.358;0.724;2022-08-19T07:19:52;23.0;61.0
26641;DHT22;14269;47.358;0.724;2022-08-19T07:22:24;23.0;62.0
26641;DHT22;14269;47.358;0.724;2022-08-19T07:24:55;23.0;63.0
26641;DHT22;14269;47.358;0.724;2022-08-19T07:27:27;23.0;62.0
26641;DHT22;14269;47.358;0.724;2022-08-19T07:29:59;23.0;63.0
26641;DHT22;14269;47.358;0.724;2022-08-19T07:32:31;23.0;61.0
26641;DHT22;14269;47.358;0.724;2022-08-19T07:35:03;23.0;61.0
26641;DHT22;14269;47.358;0.724;2022-08-19T07:37:44;24.0;60.0
26641;DHT22;14269;47.358;0.724;2022-08-19T07:40:15;23.0;62.0
26641;DHT22;14269;47.358;0.724;2022-08-19T07:42:47;23.0;63.0
26641;DHT22;14269;47.358;0.724;2022-08-19T07:45:19;23.0;63.0
26641;DHT22;14269;47.358;0.724;2022-08-19T07:47:51;23.0;63.0
26641;DHT22;14269;47.358;0.724;2022-08-19T07:50:32;23.0;62.0
26641;DHT22;14269;47.358;0.724;2022-08-19T07:53:04;23.0;63.0
26641;DHT22;14269;47.358;0.724;2022-08-19T07:55:35;23.0;64.0
26641;DHT22;14269;47.358;0.724;2022-08-19T07:58:07;23.0;63.0
26641;DHT22;14269;47.358;0.724;2022-08-19T08:00:39;23.0;64.0
26641;DHT22;14269;47.358;0.724;2022-08-19T08:03:11;23.0;63.0
26641;DHT22;14269;47.358;0.724;2022-08-19T08:09:11;23.0;63.0
26641;DHT22;14269;47.358;0.724;2022-08-19T08:12:01;24.0;61.0
26641;DHT22;14269;47.358;0.724;2022-08-19T08:14:42;24.0;61.0
26641;DHT22;14269;47.358;0.724;2022-08-19T08:17:22;23.0;62.0
26641;DHT22;14269;47.358;0.724;2022-08-19T08:20:03;23.0;61.0
26641;DHT22;14269;47.358;0.724;2022-08-19T08:23:49;24.0;60.0
26641;DHT22;14269;47.358;0.724;2022-08-19T08:26:26;24.0;61.0
26641;DHT22;14269;47.358;0.724;2022-08-19T08:28:57;24.0;61.0
26641;DHT22;14269;47.358;0.724;2022-08-19T08:31:29;23.0;62.0
26641;DHT22;14269;47.358;0.724;2022-08-19T08:34:01;23.0;62.0
26641;DHT22;14269;47.358;0.724;2022-08-19T08:36:35;24.0;62.0
26641;DHT22;14269;47.358;0.724;2022-08-19T08:39:16;24.0;60.0
26641;DHT22;14269;47.358;0.724;2022-08-19T08:42:07;23.0;62.0
26641;DHT22;14269;47.358;0.724;2022-08-19T08:44:52;23.0;62.0
26641;DHT22;14269;47.358;0.724;2022-08-19T08:47:35;24.0;60.0
26641;DHT22;14269;47.358;0.724;2022-08-19T08:50:17;24.0;61.0
26641;DHT22;14269;47.358;0.724;2022-08-19T08:52:57;24.0;61.0
26641;DHT22;14269;47.358;0.724;2022-08-19T08:55:35;24.0;61.0
26641;DHT22;14269;47.358;0.724;2022-08-19T08:58:09;23.0;62.0
26641;DHT22;14269;47.358;0.724;2022-08-19T09:00:49;23.0;63.0
26641;DHT22;14269;47.358;0.724;2022-08-19T09:03:30;23.0;62.0
26641;DHT22;14269;47.358;0.724;2022-08-19T09:06:04;23.0;64.0
26641;DHT22;14269;47.358;0.724;2022-08-19T09:08:48;23.0;65.0
26641;DHT22;14269;47.358;0.724;2022-08-19T09:11:36;23.0;64.0
26641;DHT22;14269;47.358;0.724;2022-08-19T09:14:30;23.0;65.0
26641;DHT22;14269;47.358;0.724;2022-08-19T09:17:09;23.0;64.0
26641;DHT22;14269;47.358;0.724;2022-08-19T09:19:49;23.0;64.0
26641;DHT22;14269;47.358;0.724;2022-08-19T09:22:22;23.0;63.0
26641;DHT22;14269;47.358;0.724;2022-08-19T09:25:06;23.0;63.0
26641;DHT22;14269;47.358;0.724;2022-08-19T09:27:46;23.0;63.0
26641;DHT22;14269;47.358;0.724;2022-08-19T09:30:20;24.0;62.0
26641;DHT22;14269;47.358;0.724;2022-08-19T09:32:59;23.0;63.0
26641;DHT22;14269;47.358;0.724;2022-08-19T09:35:31;23.0;63.0
26641;DHT22;14269;47.358;0.724;2022-08-19T09:38:02;23.0;63.0
26641;DHT22;14269;47.358;0.724;2022-08-19T09:40:34;23.0;64.0
26641;DHT22;14269;47.358;0.724;2022-08-19T09:43:06;24.0;63.0
26641;DHT22;14269;47.358;0.724;2022-08-19T09:45:47;23.0;63.0
26641;DHT22;14269;47.358;0.724;2022-08-19T09:48:20;24.0;62.0
26641;DHT22;14269;47.358;0.724;2022-08-19T09:51:04;24.0;62.0
26641;DHT22;14269;47.358;0.724;2022-08-19T09:53:43;24.0;62.0
26641;DHT22;14269;47.358;0.724;2022-08-19T09:56:24;23.0;62.0
26641;DHT22;14269;47.358;0.724;2022-08-19T09:58:57;24.0;63.0
26641;DHT22;14269;47.358;0.724;2022-08-19T10:01:38;24.0;61.0
26641;DHT22;14269;47.358;0.724;2022-08-19T10:04:09;24.0;61.0
26641;DHT22;14269;47.358;0.724;2022-08-19T10:06:42;23.0;63.0
26641;DHT22;14269;47.358;0.724;2022-08-19T10:09:14;24.0;63.0
26641;DHT22;14269;47.358;0.724;2022-08-19T10:11:54;24.0;63.0
26641;DHT22;14269;47.358;0.724;2022-08-19T10:14:27;24.0;62.0
26641;DHT22;14269;47.358;0.724;2022-08-19T10:17:08;24.0;63.0
26641;DHT22;14269;47.358;0.724;2022-08-19T10:19:40;23.0;63.0
26641;DHT22;14269;47.358;0.724;2022-08-19T10:22:13;24.0;63.0
26641;DHT22;14269;47.358;0.724;2022-08-19T10:24:53;24.0;63.0
26641;DHT22;14269;47.358;0.724;2022-08-19T10:27:24;24.0;63.0
26641;DHT22;14269;47.358;0.724;2022-08-19T10:29:56;23.0;64.0
26641;DHT22;14269;47.358;0.724;2022-08-19T10:32:29;24.0;63.0
26641;DHT22;14269;47.358;0.724;2022-08-19T10:35:09;24.0;62.0
26641;DHT22;14269;47.358;0.724;2022-08-19T10:37:41;24.0;62.0
26641;DHT22;14269;47.358;0.724;2022-08-19T10:40:13;23.0;64.0
26641;DHT22;14269;47.358;0.724;2022-08-19T10:42:44;24.0;63.0
26641;DHT22;14269;47.358;0.724;2022-08-19T10:45:16;24.0;62.0
26641;DHT22;14269;47.358;0.724;2022-08-19T10:47:48;24.0;61.0
26641;DHT22;14269;47.358;0.724;2022-08-19T10:52:44;25.0;61.0
26641;DHT22;14269;47.358;0.724;2022-08-19T10:57:44;25.0;59.0
26641;DHT22;14269;47.358;0.724;2022-08-19T11:00:16;25.0;60.0
26641;DHT22;14269;47.358;0.724;2022-08-19T11:02:47;24.0;61.0
26641;DHT22;14269;47.358;0.724;2022-08-19T11:05:19;25.0;60.0
26641;DHT22;14269;47.358;0.724;2022-08-19T11:08:01;26.0;58.0
26641;DHT22;14269;47.358;0.724;2022-08-19T11:10:32;25.0;59.0
26641;DHT22;14269;47.358;0.724;2022-08-19T11:13:04;25.0;58.0
26641;DHT22;14269;47.358;0.724;2022-08-19T11:15:37;25.0;60.0
26641;DHT22;14269;47.358;0.724;2022-08-19T11:18:17;25.0;60.0
26641;DHT22;14269;47.358;0.724;2022-08-19T11:20:49;25.0;59.0
26641;DHT22;14269;47.358;0.724;2022-08-19T11:23:21;25.0;60.0
26641;DHT22;14269;47.358;0.724;2022-08-19T11:25:53;24.0;62.0
26641;DHT22;14269;47.358;0.724;2022-08-19T11:28:24;25.0;61.0
26641;DHT22;14269;47.358;0.724;2022-08-19T11:30:56;24.0;62.0
26641;DHT22;14269;47.358;0.724;2022-08-19T11:33:27;24.0;61.0
26641;DHT22;14269;47.358;0.724;2022-08-19T11:35:59;25.0;60.0
26641;DHT22;14269;47.358;0.724;2022-08-19T11:38:41;25.0;60.0
26641;DHT22;14269;47.358;0.724;2022-08-19T11:41:12;25.0;59.0
26641;DHT22;14269;47.358;0.724;2022-08-19T11:43:44;25.0;60.0
26641;DHT22;14269;47.358;0.724;2022-08-19T11:46:16;25.0;59.0
26641;DHT22;14269;47.358;0.724;2022-08-19T11:48:49;25.0;59.0
26641;DHT22;14269;47.358;0.724;2022-08-19T11:51:30;25.0;59.0
26641;DHT22;14269;47.358;0.724;2022-08-19T11:54:03;25.0;59.0
26641;DHT22;14269;47.358;0.724;2022-08-19T11:56:43;25.0;59.0
26641;DHT22;14269;47.358;0.724;2022-08-19T11:59:14;25.0;60.0
26641;DHT22;14269;47.358;0.724;2022-08-19T12:01:46;24.0;61.0
26641;DHT22;14269;47.358;0.724;2022-08-19T12:04:17;24.0;61.0
26641;DHT22;14269;47.358;0.724;2022-08-19T12:06:50;24.0;61.0
26641;DHT22;14269;47.358;0.724;2022-08-19T12:09:22;25.0;60.0
26641;DHT22;14269;47.358;0.724;2022-08-19T12:11:52;24.0;60.0
26641;DHT22;14269;47.358;0.724;2022-08-19T12:14:24;25.0;60.0
26641;DHT22;14269;47.358;0.724;2022-08-19T12:16:56;24.0;62.0
26641;DHT22;14269;47.358;0.724;2022-08-19T12:19:28;24.0;60.0
26641;DHT22;14269;47.358;0.724;2022-08-19T12:22:00;24.0;62.0
26641;DHT22;14269;47.358;0.724;2022-08-19T12:24:41;25.0;61.0
26641;DHT22;14269;47.358;0.724;2022-08-19T12:27:22;26.0;56.0
26641;DHT22;14269;47.358;0.724;2022-08-19T12:29:54;26.0;56.0
26641;DHT22;14269;47.358;0.724;2022-08-19T12:32:26;25.0;57.0
26641;DHT22;14269;47.358;0.724;2022-08-19T12:34:57;25.0;59.0
26641;DHT22;14269;47.358;0.724;2022-08-19T12:37:29;24.0;60.0
26641;DHT22;14269;47.358;0.724;2022-08-19T12:40:12;24.0;62.0
26641;DHT22;14269;47.358;0.724;2022-08-19T12:42:53;24.0;62.0
26641;DHT22;14269;47.358;0.724;2022-08-19T12:45:24;24.0;62.0
26641;DHT22;14269;47.358;0.724;2022-08-19T12:47:56;24.0;63.0
26641;DHT22;14269;47.358;0.724;2022-08-19T12:50:28;23.0;63.0
26641;DHT22;14269;47.358;0.724;2022-08-19T12:53:09;24.0;63.0
26641;DHT22;14269;47.358;0.724;2022-08-19T12:55:42;24.0;63.0
26641;DHT22;14269;47.358;0.724;2022-08-19T12:58:23;24.0;62.0
26641;DHT22;14269;47.358;0.724;2022-08-19T13:00:54;25.0;61.0
26641;DHT22;14269;47.358;0.724;2022-08-19T13:03:29;25.0;61.0
26641;DHT22;14269;47.358;0.724;2022-08-19T13:06:09;25.0;61.0
26641;DHT22;14269;47.358;0.724;2022-08-19T13:08:39;25.0;60.0
26641;DHT22;14269;47.358;0.724;2022-08-19T13:11:15;25.0;60.0
26641;DHT22;14269;47.358;0.724;2022-08-19T13:13:55;25.0;59.0
26641;DHT22;14269;47.358;0.724;2022-08-19T13:16:35;26.0;60.0
26641;DHT22;14269;47.358;0.724;2022-08-19T13:19:07;26.0;59.0
26641;DHT22;14269;47.358;0.724;2022-08-19T13:21:38;26.0;58.0
26641;DHT22;14269;47.358;0.724;2022-08-19T13:24:09;25.0;60.0
26641;DHT22;14269;47.358;0.724;2022-08-19T13:26:41;25.0;59.0
26641;DHT22;14269;47.358;0.724;2022-08-19T13:33:56;26.0;58.0
26641;DHT22;14269;47.358;0.724;2022-08-19T13:36:28;25.0;60.0
26641;DHT22;14269;47.358;0.724;2022-08-19T13:38:59;25.0;58.0
26641;DHT22;14269;47.358;0.724;2022-08-19T13:41:31;24.0;60.0
26641;DHT22;14269;47.358;0.724;2022-08-19T13:44:03;24.0;61.0
26641;DHT22;14269;47.358;0.724;2022-08-19T13:46:34;25.0;59.0
26641;DHT22;14269;47.358;0.724;2022-08-19T13:49:06;25.0;59.0
26641;DHT22;14269;47.358;0.724;2022-08-19T13:51:39;26.0;57.0
26641;DHT22;14269;47.358;0.724;2022-08-19T13:54:19;26.0;55.0
26641;DHT22;14269;47.358;0.724;2022-08-19T13:56:51;27.0;55.0
26641;DHT22;14269;47.358;0.724;2022-08-19T13:59:22;27.0;55.0
26641;DHT22;14269;47.358;0.724;2022-08-19T14:01:57;26.0;57.0
26641;DHT22;14269;47.358;0.724;2022-08-19T14:04:37;26.0;57.0
26641;DHT22;14269;47.358;0.724;2022-08-19T14:07:18;25.0;59.0
26641;DHT22;14269;47.358;0.724;2022-08-19T14:09:50;25.0;59.0
26641;DHT22;14269;47.358;0.724;2022-08-19T14:12:22;25.0;59.0
26641;DHT22;14269;47.358;0.724;2022-08-19T14:15:05;25.0;59.0
26641;DHT22;14269;47.358;0.724;2022-08-19T14:17:46;25.0;60.0
26641;DHT22;14269;47.358;0.724;2022-08-19T14:20:26;24.0;61.0
26641;DHT22;14269;47.358;0.724;2022-08-19T14:22:59;24.0;62.0
26641;DHT22;14269;47.358;0.724;2022-08-19T14:25:40;24.0;64.0
26641;DHT22;14269;47.358;0.724;2022-08-19T14:28:11;24.0;65.0
26641;DHT22;14269;47.358;0.724;2022-08-19T14:30:44;24.0;67.0
26641;DHT22;14269;47.358;0.724;2022-08-19T14:33:25;25.0;65.0
26641;DHT22;14269;47.358;0.724;2022-08-19T14:35:56;24.0;65.0
26641;DHT22;14269;47.358;0.724;2022-08-19T14:38:31;25.0;66.0
26641;DHT22;14269;47.358;0.724;2022-08-19T14:41:13;25.0;66.0
26641;DHT22;14269;47.358;0.724;2022-08-19T14:43:52;25.0;65.0
26641;DHT22;14269;47.358;0.724;2022-08-19T14:46:33;26.0;65.0
26641;DHT22;14269;47.358;0.724;2022-08-19T14:49:05;26.0;64.0
26641;DHT22;14269;47.358;0.724;2022-08-19T14:51:36;26.0;65.0
26641;DHT22;14269;47.358;0.724;2022-08-19T14:54:08;26.0;64.0
26641;DHT22;14269;47.358;0.724;2022-08-19T14:56:40;26.0;65.0
26641;DHT22;14269;47.358;0.724;2022-08-19T14:59:11;26.0;64.0
26641;DHT22;14269;47.358;0.724;2022-08-19T15:01:43;26.0;65.0
26641;DHT22;14269;47.358;0.724;2022-08-19T15:04:15;25.0;64.0
26641;DHT22;14269;47.358;0.724;2022-08-19T15:06:46;25.0;65.0
26641;DHT22;14269;47.358;0.724;2022-08-19T15:09:18;25.0;64.0
26641;DHT22;14269;47.358;0.724;2022-08-19T15:11:50;25.0;64.0
26641;DHT22;14269;47.358;0.724;2022-08-19T15:14:21;25.0;62.0
26641;DHT22;14269;47.358;0.724;2022-08-19T15:16:53;25.0;63.0
26641;DHT22;14269;47.358;0.724;2022-08-19T15:19:24;25.0;62.0
26641;DHT22;14269;47.358;0.724;2022-08-19T15:21:57;26.0;62.0
26641;DHT22;14269;47.358;0.724;2022-08-19T15:24:28;26.0;61.0
26641;DHT22;14269;47.358;0.724;2022-08-19T15:26:59;26.0;61.0
26641;DHT22;14269;47.358;0.724;2022-08-19T15:29:32;26.0;60.0
26641;DHT22;14269;47.358;0.724;2022-08-19T15:32:03;24.0;64.0
26641;DHT22;14269;47.358;0.724;2022-08-19T15:34:48;25.0;63.0
26641;DHT22;14269;47.358;0.724;2022-08-19T15:37:26;25.0;62.0
26641;DHT22;14269;47.358;0.724;2022-08-19T15:39:58;25.0;62.0
26641;DHT22;14269;47.358;0.724;2022-08-19T15:42:30;25.0;63.0
26641;DHT22;14269;47.358;0.724;2022-08-19T15:45:02;24.0;64.0
26641;DHT22;14269;47.358;0.724;2022-08-19T15:47:33;24.0;64.0
26641;DHT22;14269;47.358;0.724;2022-08-19T15:50:06;25.0;62.0
26641;DHT22;14269;47.358;0.724;2022-08-19T15:52:48;25.0;62.0
26641;DHT22;14269;47.358;0.724;2022-08-19T15:55:30;25.0;61.0
26641;DHT22;14269;47.358;0.724;2022-08-19T16:06:32;25.0;60.0
26641;DHT22;14269;47.358;0.724;2022-08-19T16:09:07;25.0;61.0
26641;DHT22;14269;47.358;0.724;2022-08-19T16:11:39;25.0;59.0
26641;DHT22;14269;47.358;0.724;2022-08-19T16:14:20;25.0;60.0
26641;DHT22;14269;47.358;0.724;2022-08-19T16:16:52;25.0;59.0
26641;DHT22;14269;47.358;0.724;2022-08-19T16:19:50;25.0;60.0
26641;DHT22;14269;47.358;0.724;2022-08-19T16:22:28;25.0;60.0
26641;DHT22;14269;47.358;0.724;2022-08-19T16:25:06;25.0;60.0
26641;DHT22;14269;47.358;0.724;2022-08-19T16:27:47;25.0;60.0
26641;DHT22;14269;47.358;0.724;2022-08-19T16:30:19;25.0;60.0
26641;DHT22;14269;47.358;0.724;2022-08-19T16:32:50;25.0;60.0
26641;DHT22;14269;47.358;0.724;2022-08-19T16:35:22;25.0;59.0
26641;DHT22;14269;47.358;0.724;2022-08-19T16:37:53;25.0;60.0
26641;DHT22;14269;47.358;0.724;2022-08-19T16:40:25;25.0;60.0
26641;DHT22;14269;47.358;0.724;2022-08-19T16:42:58;25.0;59.0
26641;DHT22;14269;47.358;0.724;2022-08-19T16:45:38;25.0;59.0
26641;DHT22;14269;47.358;0.724;2022-08-19T16:48:10;25.0;59.0
26641;DHT22;14269;47.358;0.724;2022-08-19T16:50:43;25.0;58.0
26641;DHT22;14269;47.358;0.724;2022-08-19T16:53:27;26.0;58.0
26641;DHT22;14269;47.358;0.724;2022-08-19T16:56:06;26.0;58.0
26641;DHT22;14269;47.358;0.724;2022-08-19T16:58:37;26.0;57.0
26641;DHT22;14269;47.358;0.724;2022-08-19T17:01:09;26.0;57.0
26641;DHT22;14269;47.358;0.724;2022-08-19T17:03:41;26.0;57.0
26641;DHT22;14269;47.358;0.724;2022-08-19T17:06:14;26.0;57.0
26641;DHT22;14269;47.358;0.724;2022-08-19T17:08:56;26.0;57.0
26641;DHT22;14269;47.358;0.724;2022-08-19T17:11:36;26.0;57.0
26641;DHT22;14269;47.358;0.724;2022-08-19T17:14:07;26.0;57.0
26641;DHT22;14269;47.358;0.724;2022-08-19T17:16:39;26.0;57.0
26641;DHT22;14269;47.358;0.724;2022-08-19T17:19:10;26.0;57.0
26641;DHT22;14269;47.358;0.724;2022-08-19T17:21:42;26.0;56.0